createdAt,value
2018-01-17T00:00:43.517Z,2.29
2018-01-17T00:01:49.805Z,2.23
2018-01-17T00:02:56.315Z,2.21
2018-01-17T00:04:03.328Z,2.31
2018-01-17T00:05:09.570Z,2.29
2018-01-17T00:06:16.381Z,2.28
2018-01-17T00:07:23.377Z,2.28
2018-01-17T00:08:29.663Z,2.36
2018-01-17T00:09:40.975Z,2.24
2018-01-17T00:10:47.332Z,2.21
2018-01-17T00:12:01.085Z,2.28
2018-01-17T00:13:07.444Z,2.31
2018-01-17T00:14:13.851Z,2.31
2018-01-17T00:15:20.199Z,2.30
2018-01-17T00:16:26.530Z,2.25
2018-01-17T00:17:32.697Z,2.17
2018-01-17T00:18:42.391Z,2.21
2018-01-17T00:19:53.686Z,2.29
2018-01-17T00:21:00.040Z,2.30
2018-01-17T00:22:15.977Z,2.29
2018-01-17T00:23:22.213Z,2.25
2018-01-17T00:24:29.305Z,2.26
2018-01-17T00:25:35.266Z,2.23
2018-01-17T00:26:41.426Z,2.28
2018-01-17T00:27:48.085Z,2.35
2018-01-17T00:28:55.458Z,2.26
2018-01-17T00:30:02.504Z,2.32
2018-01-17T00:31:08.665Z,2.29
2018-01-17T00:32:15.007Z,2.30
2018-01-17T00:33:22.146Z,2.24
2018-01-17T00:34:30.478Z,2.21
2018-01-17T00:35:36.717Z,2.29
2018-01-17T00:36:44.130Z,2.18
2018-01-17T00:37:51.909Z,2.15
2018-01-17T00:38:58.160Z,2.13
2018-01-17T00:40:06.463Z,2.17
2018-01-17T00:41:13.104Z,2.19
2018-01-17T00:42:19.616Z,2.14
2018-01-17T00:43:25.815Z,2.25
2018-01-17T00:44:39.500Z,2.26
2018-01-17T00:45:45.766Z,2.30
2018-01-17T00:46:52.129Z,2.33
2018-01-17T00:47:58.350Z,2.28
2018-01-17T00:49:03.908Z,2.31
2018-01-17T00:50:10.925Z,2.32
2018-01-17T00:51:16.575Z,2.35
2018-01-17T00:52:23.517Z,2.36
2018-01-17T00:53:30.518Z,2.25
2018-01-17T00:54:37.495Z,2.22
2018-01-17T00:55:43.708Z,2.27
2018-01-17T00:56:49.915Z,2.26
2018-01-17T00:57:57.059Z,2.31
2018-01-17T00:59:04.886Z,2.27
2018-01-17T01:00:11.232Z,2.23
2018-01-17T01:01:17.499Z,2.22
2018-01-17T01:02:24.420Z,2.27
2018-01-17T01:03:31.832Z,2.30
2018-01-17T01:04:39.361Z,2.30
2018-01-17T01:05:46.453Z,2.38
2018-01-17T01:06:53.424Z,2.36
2018-01-17T01:07:59.855Z,2.27
2018-01-17T01:09:05.402Z,2.24
2018-01-17T01:10:12.674Z,2.22
2018-01-17T01:11:19.578Z,2.26
2018-01-17T01:12:26.487Z,2.24
2018-01-17T01:13:32.858Z,2.30
2018-01-17T01:14:39.516Z,2.27
2018-01-17T01:15:45.694Z,2.23
2018-01-17T01:16:52.003Z,2.20
2018-01-17T01:17:58.374Z,2.25
2018-01-17T01:19:04.513Z,2.22
2018-01-17T01:20:10.395Z,2.22
2018-01-17T01:21:17.200Z,2.27
2018-01-17T01:22:23.594Z,2.26
2018-01-17T01:23:30.881Z,2.30
2018-01-17T01:24:38.134Z,2.29
2018-01-17T01:25:44.078Z,2.25
2018-01-17T01:26:50.261Z,2.23
2018-01-17T01:27:56.913Z,2.26
2018-01-17T01:29:03.454Z,2.19
2018-01-17T01:30:10.477Z,2.16
2018-01-17T01:31:21.971Z,2.20
2018-01-17T01:32:28.297Z,2.21
2018-01-17T01:33:34.800Z,2.18
2018-01-17T01:34:41.158Z,2.25
2018-01-17T01:35:47.469Z,2.22
2018-01-17T01:36:53.839Z,2.25
2018-01-17T01:38:00.558Z,2.30
2018-01-17T01:39:06.167Z,2.22
2018-01-17T01:40:12.788Z,2.19
2018-01-17T01:41:19.337Z,2.18
2018-01-17T01:42:25.630Z,2.18
2018-01-17T01:43:32.734Z,2.22
2018-01-17T01:44:38.964Z,2.21
2018-01-17T01:45:45.227Z,2.18
2018-01-17T01:46:52.587Z,2.15
2018-01-17T01:47:58.729Z,2.25
2018-01-17T01:49:04.958Z,2.12
2018-01-17T01:50:11.751Z,2.22
2018-01-17T01:51:18.711Z,2.13
2018-01-17T01:52:24.910Z,2.09
2018-01-17T01:53:31.836Z,2.10
2018-01-17T01:54:38.105Z,2.10
2018-01-17T01:55:44.433Z,2.17
2018-01-17T01:56:51.465Z,2.18
2018-01-17T01:57:58.285Z,2.17
2018-01-17T01:59:05.390Z,2.12
2018-01-17T02:00:12.416Z,2.13
2018-01-17T02:01:18.784Z,2.09
2018-01-17T02:02:26.837Z,2.10
2018-01-17T02:03:41.898Z,2.11
2018-01-17T02:04:48.719Z,2.10
2018-01-17T02:05:55.953Z,2.15
2018-01-17T02:07:02.237Z,2.12
2018-01-17T02:08:08.549Z,2.08
2018-01-17T02:09:14.791Z,2.12
2018-01-17T02:10:21.685Z,2.18
2018-01-17T02:11:28.911Z,2.19
2018-01-17T02:12:35.243Z,2.15
2018-01-17T02:13:41.514Z,2.15
2018-01-17T02:14:47.729Z,2.18
2018-01-17T02:15:54.460Z,2.18
2018-01-17T02:17:00.733Z,2.24
2018-01-17T02:18:07.507Z,2.16
2018-01-17T02:19:13.702Z,2.11
2018-01-17T02:20:23.382Z,2.08
2018-01-17T02:21:29.632Z,2.03
2018-01-17T02:22:35.703Z,2.06
2018-01-17T02:23:46.880Z,2.09
2018-01-17T02:24:53.083Z,2.14
2018-01-17T02:25:59.920Z,2.17
2018-01-17T02:27:06.787Z,2.19
2018-01-17T02:28:12.998Z,2.20
2018-01-17T02:29:19.775Z,2.15
2018-01-17T02:30:25.600Z,2.09
2018-01-17T02:31:31.868Z,2.10
2018-01-17T02:32:38.147Z,2.12
2018-01-17T02:33:44.441Z,2.13
2018-01-17T02:34:51.297Z,2.09
2018-01-17T02:35:57.492Z,2.12
2018-01-17T02:37:03.633Z,2.23
2018-01-17T02:38:14.336Z,2.21
2018-01-17T02:39:20.478Z,2.20
2018-01-17T02:40:38.338Z,2.14
2018-01-17T02:41:46.093Z,2.17
2018-01-17T02:42:58.952Z,2.22
2018-01-17T02:44:05.258Z,2.19
2018-01-17T02:45:11.534Z,2.17
2018-01-17T02:46:17.719Z,2.17
2018-01-17T02:47:25.756Z,2.19
2018-01-17T02:48:31.986Z,2.14
2018-01-17T02:49:38.189Z,2.23
2018-01-17T02:50:44.377Z,2.24
2018-01-17T02:51:50.537Z,2.18
2018-01-17T02:52:56.775Z,2.21
2018-01-17T02:54:02.972Z,2.25
2018-01-17T02:55:09.221Z,2.22
2018-01-17T02:56:15.359Z,2.22
2018-01-17T02:57:22.058Z,2.16
2018-01-17T02:58:28.895Z,2.24
2018-01-17T02:59:35.059Z,2.23
2018-01-17T03:00:41.668Z,2.21
2018-01-17T03:01:47.879Z,2.24
2018-01-17T03:02:56.687Z,2.22
2018-01-17T03:04:02.910Z,2.19
2018-01-17T03:05:09.197Z,2.19
2018-01-17T03:06:16.732Z,2.17
2018-01-17T03:07:23.192Z,2.18
2018-01-17T03:08:29.567Z,2.12
2018-01-17T03:09:35.846Z,2.18
2018-01-17T03:10:42.860Z,2.17
2018-01-17T03:11:50.086Z,2.16
2018-01-17T03:12:57.434Z,2.12
2018-01-17T03:14:03.740Z,2.10
2018-01-17T03:15:09.894Z,2.13
2018-01-17T03:16:16.087Z,2.08
2018-01-17T03:17:22.009Z,2.10
2018-01-17T03:18:28.617Z,2.10
2018-01-17T03:19:35.810Z,2.07
2018-01-17T03:20:41.624Z,2.00
2018-01-17T03:21:48.163Z,2.03
2018-01-17T03:22:56.230Z,2.04
2018-01-17T03:24:02.837Z,1.95
2018-01-17T03:25:09.553Z,1.94
2018-01-17T03:26:17.289Z,1.91
2018-01-17T03:27:25.101Z,1.99
2018-01-17T03:28:30.943Z,1.93
2018-01-17T03:29:37.210Z,1.92
2018-01-17T03:30:48.223Z,1.92
2018-01-17T03:31:58.995Z,1.78
2018-01-17T03:33:07.384Z,1.79
2018-01-17T03:34:13.533Z,1.85
2018-01-17T03:35:20.742Z,1.81
2018-01-17T03:36:27.637Z,1.86
2018-01-17T03:37:34.746Z,1.85
2018-01-17T03:38:41.457Z,1.89
2018-01-17T03:39:48.644Z,1.96
2018-01-17T03:40:54.771Z,1.90
2018-01-17T03:42:01.621Z,1.90
2018-01-17T03:43:07.869Z,1.92
2018-01-17T03:44:14.543Z,1.97
2018-01-17T03:45:20.974Z,1.97
2018-01-17T03:46:27.796Z,2.03
2018-01-17T03:47:34.094Z,1.98
2018-01-17T03:48:41.022Z,2.04
2018-01-17T03:49:48.421Z,2.03
2018-01-17T03:50:55.748Z,2.10
2018-01-17T03:52:06.683Z,2.10
2018-01-17T03:53:12.816Z,2.09
2018-01-17T03:54:19.322Z,2.05
2018-01-17T03:55:25.737Z,2.04
2018-01-17T03:56:36.833Z,2.11
2018-01-17T03:57:43.703Z,2.09
2018-01-17T03:58:49.939Z,2.06
2018-01-17T03:59:56.626Z,2.12
2018-01-17T04:01:02.904Z,2.13
2018-01-17T04:02:15.741Z,2.14
2018-01-17T04:03:21.944Z,2.09
2018-01-17T04:04:28.305Z,2.09
2018-01-17T04:05:34.105Z,2.14
2018-01-17T04:06:41.290Z,2.14
2018-01-17T04:07:48.123Z,2.27
2018-01-17T04:08:54.386Z,2.20
2018-01-17T04:10:00.637Z,2.19
2018-01-17T04:11:06.493Z,2.16
2018-01-17T04:12:12.714Z,2.16
2018-01-17T04:13:18.858Z,2.15
2018-01-17T04:14:25.199Z,2.15
2018-01-17T04:15:32.557Z,2.12
2018-01-17T04:16:39.101Z,2.16
2018-01-17T04:17:45.429Z,2.15
2018-01-17T04:18:51.418Z,2.13
2018-01-17T04:19:57.361Z,2.14
2018-01-17T04:21:03.652Z,2.20
2018-01-17T04:22:10.390Z,2.21
2018-01-17T04:23:16.966Z,2.26
2018-01-17T04:24:28.347Z,2.23
2018-01-17T04:25:34.615Z,2.23
2018-01-17T04:26:40.886Z,2.19
2018-01-17T04:27:47.687Z,2.18
2018-01-17T04:28:53.948Z,2.19
2018-01-17T04:30:00.255Z,2.17
2018-01-17T04:31:06.276Z,2.17
2018-01-17T04:32:12.903Z,2.10
2018-01-17T04:33:19.172Z,2.16
2018-01-17T04:34:26.003Z,2.18
2018-01-17T04:35:33.159Z,2.17
2018-01-17T04:36:45.662Z,2.20
2018-01-17T04:37:51.881Z,2.24
2018-01-17T04:39:02.751Z,2.26
2018-01-17T04:40:10.336Z,2.29
2018-01-17T04:41:17.662Z,2.29
2018-01-17T04:42:24.311Z,2.33
2018-01-17T04:43:30.556Z,2.34
2018-01-17T04:44:36.755Z,2.34
2018-01-17T04:45:43.001Z,2.31
2018-01-17T04:46:49.312Z,2.31
2018-01-17T04:47:56.480Z,2.31
2018-01-17T04:49:02.741Z,2.38
2018-01-17T04:50:09.036Z,2.30
2018-01-17T04:51:15.303Z,2.33
2018-01-17T04:52:21.532Z,2.30
2018-01-17T04:53:27.497Z,2.48
2018-01-17T04:54:33.741Z,2.53
2018-01-17T04:55:40.040Z,2.51
2018-01-17T04:56:46.211Z,2.43
2018-01-17T04:57:52.108Z,2.39
2018-01-17T04:58:58.604Z,2.42
2018-01-17T05:00:05.252Z,2.37
2018-01-17T05:01:14.271Z,2.37
2018-01-17T05:02:22.721Z,2.41
2018-01-17T05:03:31.924Z,2.37
2018-01-17T05:04:41.310Z,2.41
2018-01-17T05:05:49.172Z,2.37
2018-01-17T05:06:56.551Z,2.43
2018-01-17T05:08:05.476Z,2.39
2018-01-17T05:09:13.611Z,2.37
2018-01-17T05:10:20.691Z,2.35
2018-01-17T05:11:30.499Z,2.37
2018-01-17T05:12:40.064Z,2.36
2018-01-17T05:13:48.759Z,2.41
2018-01-17T05:14:56.329Z,2.39
2018-01-17T05:16:05.377Z,2.40
2018-01-17T05:17:13.469Z,2.36
2018-01-17T05:18:19.697Z,2.39
2018-01-17T05:19:26.836Z,2.35
2018-01-17T05:20:33.031Z,2.37
2018-01-17T05:21:39.372Z,2.42
2018-01-17T05:22:45.617Z,2.42
2018-01-17T05:23:51.755Z,2.45
2018-01-17T05:24:59.588Z,2.50
2018-01-17T05:26:05.834Z,2.50
2018-01-17T05:27:12.087Z,2.52
2018-01-17T05:28:19.017Z,2.51
2018-01-17T05:29:25.258Z,2.52
2018-01-17T05:30:31.516Z,2.54
2018-01-17T05:31:38.131Z,2.58
2018-01-17T05:32:44.266Z,2.57
2018-01-17T05:33:50.437Z,2.57
2018-01-17T05:34:56.548Z,2.64
2018-01-17T05:36:02.804Z,2.65
2018-01-17T05:37:09.442Z,2.68
2018-01-17T05:38:16.419Z,2.71
2018-01-17T05:39:22.575Z,2.74
2018-01-17T05:40:28.792Z,2.70
2018-01-17T05:41:41.883Z,2.73
2018-01-17T05:42:48.879Z,2.71
2018-01-17T05:43:55.163Z,2.72
2018-01-17T05:45:01.371Z,2.73
2018-01-17T05:46:07.601Z,2.71
2018-01-17T05:47:15.092Z,2.69
2018-01-17T05:48:21.269Z,2.78
2018-01-17T05:49:28.200Z,2.74
2018-01-17T05:50:34.429Z,2.73
2018-01-17T05:51:40.745Z,2.63
2018-01-17T05:52:48.579Z,2.62
2018-01-17T05:53:55.224Z,2.67
2018-01-17T05:55:01.476Z,2.68
2018-01-17T05:56:07.775Z,2.63
2018-01-17T05:57:13.691Z,2.62
2018-01-17T05:58:19.859Z,2.63
2018-01-17T05:59:26.057Z,2.58
2018-01-17T06:00:33.218Z,2.56
2018-01-17T06:01:39.471Z,2.56
2018-01-17T06:02:46.115Z,2.57
2018-01-17T06:03:52.984Z,2.56
2018-01-17T06:04:59.122Z,2.56
2018-01-17T06:06:05.338Z,2.50
2018-01-17T06:07:11.302Z,2.51
2018-01-17T06:08:18.265Z,2.51
2018-01-17T06:09:24.466Z,2.48
2018-01-17T06:10:30.782Z,2.52
2018-01-17T06:11:37.327Z,2.54
2018-01-17T06:12:49.062Z,2.59
2018-01-17T06:13:56.084Z,2.50
2018-01-17T06:15:01.964Z,2.48
2018-01-17T06:16:08.262Z,2.46
2018-01-17T06:17:15.329Z,2.47
2018-01-17T06:18:21.666Z,2.47
2018-01-17T06:19:27.960Z,2.49
2018-01-17T06:20:35.554Z,2.51
2018-01-17T06:21:41.502Z,2.55
2018-01-17T06:22:48.454Z,2.62
2018-01-17T06:23:54.625Z,2.60
2018-01-17T06:25:00.929Z,2.63
2018-01-17T06:26:06.836Z,2.66
2018-01-17T06:27:13.419Z,2.69
2018-01-17T06:28:19.586Z,2.64
2018-01-17T06:29:25.868Z,2.68
2018-01-17T06:30:32.379Z,2.69
2018-01-17T06:31:38.725Z,2.74
2018-01-17T06:32:44.876Z,2.78
2018-01-17T06:33:50.830Z,2.72
2018-01-17T06:34:57.433Z,2.77
2018-01-17T06:36:03.638Z,2.79
2018-01-17T06:37:09.687Z,2.81
2018-01-17T06:38:15.896Z,2.80
2018-01-17T06:39:21.822Z,2.88
2018-01-17T06:40:32.252Z,2.85
2018-01-17T06:41:39.646Z,2.92
2018-01-17T06:42:49.630Z,2.86
2018-01-17T06:43:56.004Z,2.91
2018-01-17T06:45:02.400Z,2.88
2018-01-17T06:46:08.774Z,2.95
2018-01-17T06:47:14.731Z,2.96
2018-01-17T06:48:20.994Z,2.90
2018-01-17T06:49:27.928Z,2.93
2018-01-17T06:50:34.361Z,2.90
2018-01-17T06:51:41.100Z,2.87
2018-01-17T06:52:47.282Z,2.89
2018-01-17T06:53:54.415Z,2.83
2018-01-17T06:55:00.998Z,2.83
2018-01-17T06:56:07.187Z,2.84
2018-01-17T06:57:13.454Z,2.82
2018-01-17T06:58:19.613Z,2.81
2018-01-17T06:59:26.435Z,2.83
2018-01-17T07:00:36.050Z,2.81
2018-01-17T07:01:42.216Z,2.70
2018-01-17T07:02:48.684Z,2.70
2018-01-17T07:03:55.126Z,2.75
2018-01-17T07:05:04.288Z,2.66
2018-01-17T07:06:11.369Z,2.61
2018-01-17T07:07:17.752Z,2.52
2018-01-17T07:08:23.936Z,2.44
2018-01-17T07:09:30.080Z,2.41
2018-01-17T07:10:35.941Z,2.42
2018-01-17T07:11:42.174Z,2.47
2018-01-17T07:12:49.433Z,2.35
2018-01-17T07:13:55.589Z,2.37
2018-01-17T07:15:01.789Z,2.25
2018-01-17T07:16:07.977Z,2.24
2018-01-17T07:17:14.260Z,2.26
2018-01-17T07:18:20.474Z,2.28
2018-01-17T07:19:26.791Z,2.30
2018-01-17T07:20:33.081Z,2.34
2018-01-17T07:21:39.228Z,2.32
2018-01-17T07:22:45.580Z,2.33
2018-01-17T07:23:51.824Z,2.29
2018-01-17T07:24:58.002Z,2.26
2018-01-17T07:26:05.831Z,2.28
2018-01-17T07:27:12.721Z,2.31
2018-01-17T07:28:18.995Z,2.25
2018-01-17T07:29:26.992Z,2.27
2018-01-17T07:30:32.892Z,2.21
2018-01-17T07:31:38.808Z,2.32
2018-01-17T07:32:45.175Z,2.33
2018-01-17T07:33:51.382Z,2.44
2018-01-17T07:34:57.516Z,2.43
2018-01-17T07:36:03.693Z,2.37
2018-01-17T07:37:10.007Z,2.38
2018-01-17T07:38:16.661Z,2.35
2018-01-17T07:39:23.394Z,2.37
2018-01-17T07:40:29.726Z,2.36
2018-01-17T07:41:35.923Z,2.41
2018-01-17T07:42:42.112Z,2.47
2018-01-17T07:43:48.301Z,2.38
2018-01-17T07:44:54.805Z,2.44
2018-01-17T07:46:01.938Z,2.52
2018-01-17T07:47:08.120Z,2.54
2018-01-17T07:48:15.047Z,2.48
2018-01-17T07:49:21.186Z,2.50
2018-01-17T07:50:27.600Z,2.53
2018-01-17T07:51:36.271Z,2.43
2018-01-17T07:52:42.476Z,2.50
2018-01-17T07:53:48.745Z,2.53
2018-01-17T07:54:56.155Z,2.57
2018-01-17T07:56:03.177Z,2.60
2018-01-17T07:57:09.622Z,2.57
2018-01-17T07:58:15.830Z,2.63
2018-01-17T07:59:22.046Z,2.63
2018-01-17T08:00:27.936Z,2.59
2018-01-17T08:01:34.129Z,2.63
2018-01-17T08:02:40.858Z,2.61
2018-01-17T08:03:47.354Z,2.54
2018-01-17T08:04:54.598Z,2.52
2018-01-17T08:06:01.201Z,2.63
2018-01-17T08:07:07.465Z,2.68
2018-01-17T08:08:14.262Z,2.73
2018-01-17T08:09:20.545Z,2.78
2018-01-17T08:10:26.809Z,2.70
2018-01-17T08:11:33.022Z,2.69
2018-01-17T08:12:42.797Z,2.66
2018-01-17T08:13:48.938Z,2.63
2018-01-17T08:14:55.373Z,2.54
2018-01-17T08:16:03.429Z,2.49
2018-01-17T08:17:09.705Z,2.49
2018-01-17T08:18:17.816Z,2.48
2018-01-17T08:19:24.031Z,2.51
2018-01-17T08:20:30.166Z,2.57
2018-01-17T08:21:36.276Z,2.65
2018-01-17T08:22:43.091Z,2.62
2018-01-17T08:23:49.275Z,2.68
2018-01-17T08:24:55.460Z,2.62
2018-01-17T08:26:01.150Z,2.60
2018-01-17T08:27:07.442Z,2.56
2018-01-17T08:28:13.735Z,2.54
2018-01-17T08:29:19.996Z,2.65
2018-01-17T08:30:26.248Z,2.65
2018-01-17T08:31:32.664Z,2.62
2018-01-17T08:32:38.919Z,2.56
2018-01-17T08:33:45.251Z,2.61
2018-01-17T08:34:51.427Z,2.62
2018-01-17T08:35:57.358Z,2.68
2018-01-17T08:37:03.637Z,2.62
2018-01-17T08:38:09.801Z,2.69
2018-01-17T08:39:22.185Z,2.82
2018-01-17T08:40:28.537Z,2.83
2018-01-17T08:41:34.759Z,2.85
2018-01-17T08:42:41.112Z,2.85
2018-01-17T08:43:47.365Z,2.74
2018-01-17T08:44:54.469Z,2.73
2018-01-17T08:46:00.994Z,2.83
2018-01-17T08:47:07.294Z,2.84
2018-01-17T08:48:13.717Z,2.94
2018-01-17T08:49:20.488Z,2.91
2018-01-17T08:50:26.441Z,2.96
2018-01-17T08:51:32.635Z,2.90
2018-01-17T08:52:39.760Z,2.89
2018-01-17T08:53:47.464Z,2.88
2018-01-17T08:54:53.647Z,2.88
2018-01-17T08:55:59.985Z,3.02
2018-01-17T08:57:06.302Z,3.11
2018-01-17T08:58:12.915Z,3.06
2018-01-17T08:59:19.626Z,3.06
2018-01-17T09:00:26.614Z,3.07
2018-01-17T09:01:32.629Z,3.06
2018-01-17T09:02:38.905Z,3.09
2018-01-17T09:03:45.082Z,3.17
2018-01-17T09:04:51.293Z,3.22
2018-01-17T09:05:57.526Z,3.42
2018-01-17T09:07:03.805Z,3.44
2018-01-17T09:08:10.014Z,3.40
2018-01-17T09:09:16.044Z,3.48
2018-01-17T09:10:21.920Z,3.55
2018-01-17T09:11:28.590Z,3.52
2018-01-17T09:12:34.765Z,3.54
2018-01-17T09:13:40.945Z,3.44
2018-01-17T09:14:47.208Z,3.45
2018-01-17T09:15:54.088Z,3.44
2018-01-17T09:17:00.504Z,3.57
2018-01-17T09:18:06.678Z,3.68
2018-01-17T09:19:12.945Z,3.73
2018-01-17T09:20:19.106Z,3.68
2018-01-17T09:21:25.245Z,3.63
2018-01-17T09:22:31.225Z,3.69
2018-01-17T09:23:37.336Z,3.78
2018-01-17T09:24:43.511Z,3.67
2018-01-17T09:25:49.638Z,3.62
2018-01-17T09:26:55.827Z,3.59
2018-01-17T09:28:02.484Z,3.63
2018-01-17T09:29:08.642Z,3.53
2018-01-17T09:30:14.802Z,3.63
2018-01-17T09:31:20.991Z,3.70
2018-01-17T09:32:27.267Z,3.65
2018-01-17T09:33:33.595Z,3.62
2018-01-17T09:34:40.133Z,3.57
2018-01-17T09:35:47.327Z,3.47
2018-01-17T09:36:53.817Z,3.52
2018-01-17T09:38:01.167Z,3.53
2018-01-17T09:39:07.460Z,3.52
2018-01-17T09:40:14.979Z,3.68
2018-01-17T09:41:21.825Z,3.67
2018-01-17T09:42:28.084Z,3.62
2018-01-17T09:43:34.780Z,3.65
2018-01-17T09:44:43.929Z,3.67
2018-01-17T09:45:51.486Z,3.62
2018-01-17T09:46:58.414Z,3.57
2018-01-17T09:48:04.625Z,3.56
2018-01-17T09:49:11.474Z,3.60
2018-01-17T09:50:19.049Z,3.64
2018-01-17T09:51:25.175Z,3.71
2018-01-17T09:52:32.608Z,3.83
2018-01-17T09:53:39.937Z,3.94
2018-01-17T09:54:46.570Z,4.00
2018-01-17T09:55:53.531Z,3.91
2018-01-17T09:57:00.404Z,3.94
2018-01-17T09:58:07.366Z,4.00
2018-01-17T09:59:15.034Z,4.00
2018-01-17T10:00:21.895Z,3.91
2018-01-17T10:01:28.295Z,3.93
2018-01-17T10:02:34.570Z,3.88
2018-01-17T10:03:40.575Z,3.94
2018-01-17T10:04:46.771Z,3.84
2018-01-17T10:05:52.981Z,3.83
2018-01-17T10:06:59.813Z,3.82
2018-01-17T10:08:06.972Z,3.91
2018-01-17T10:09:13.853Z,3.83
2018-01-17T10:10:20.654Z,3.94
2018-01-17T10:11:27.883Z,3.96
2018-01-17T10:12:34.582Z,4.02
2018-01-17T10:13:40.780Z,4.05
2018-01-17T10:14:47.494Z,4.05
2018-01-17T10:15:54.031Z,4.12
2018-01-17T10:17:00.362Z,4.00
2018-01-17T10:18:06.477Z,3.96
2018-01-17T10:19:14.068Z,4.01
2018-01-17T10:20:20.316Z,4.05
2018-01-17T10:21:26.421Z,4.11
2018-01-17T10:22:32.311Z,4.16
2018-01-17T10:23:38.657Z,4.15
2018-01-17T10:24:45.528Z,4.16
2018-01-17T10:25:54.376Z,4.15
2018-01-17T10:27:00.733Z,4.18
2018-01-17T10:28:07.669Z,4.15
2018-01-17T10:29:13.808Z,4.12
2018-01-17T10:30:19.940Z,4.10
2018-01-17T10:31:26.683Z,4.03
2018-01-17T10:32:32.892Z,4.09
2018-01-17T10:33:39.689Z,4.15
2018-01-17T10:34:45.956Z,4.19
2018-01-17T10:35:52.688Z,4.24
2018-01-17T10:36:58.957Z,4.28
2018-01-17T10:38:04.920Z,4.14
2018-01-17T10:39:11.165Z,4.00
2018-01-17T10:40:17.397Z,4.07
2018-01-17T10:41:24.517Z,4.06
2018-01-17T10:42:30.820Z,4.10
2018-01-17T10:43:37.041Z,4.06
2018-01-17T10:44:43.104Z,3.97
2018-01-17T10:45:49.416Z,3.96
2018-01-17T10:46:56.155Z,3.98
2018-01-17T10:48:02.445Z,4.04
2018-01-17T10:49:09.432Z,4.08
2018-01-17T10:50:15.577Z,4.07
2018-01-17T10:51:21.690Z,4.06
2018-01-17T10:52:28.420Z,4.10
2018-01-17T10:53:34.552Z,4.05
2018-01-17T10:54:41.849Z,4.02
2018-01-17T10:55:48.637Z,3.99
2018-01-17T10:56:55.385Z,4.12
2018-01-17T10:58:02.593Z,4.06
2018-01-17T10:59:08.814Z,4.01
2018-01-17T11:00:15.558Z,4.06
2018-01-17T11:01:21.840Z,4.15
2018-01-17T11:02:27.997Z,4.15
2018-01-17T11:03:35.191Z,4.03
2018-01-17T11:04:41.652Z,4.14
2018-01-17T11:05:47.959Z,4.11
2018-01-17T11:06:54.049Z,4.08
2018-01-17T11:08:00.215Z,4.11
2018-01-17T11:09:06.500Z,4.14
2018-01-17T11:10:14.116Z,3.93
2018-01-17T11:11:21.461Z,3.90
2018-01-17T11:12:28.321Z,3.92
2018-01-17T11:13:35.109Z,3.87
2018-01-17T11:14:42.211Z,3.93
2018-01-17T11:15:48.420Z,3.97
2018-01-17T11:16:55.453Z,4.10
2018-01-17T11:18:04.210Z,4.13
2018-01-17T11:19:12.017Z,4.13
2018-01-17T11:20:18.174Z,4.10
2018-01-17T11:21:24.664Z,4.04
2018-01-17T11:22:30.804Z,4.09
2018-01-17T11:23:37.079Z,4.06
2018-01-17T11:24:43.337Z,4.10
2018-01-17T11:25:50.126Z,4.09
2018-01-17T11:26:58.088Z,4.06
2018-01-17T11:28:04.352Z,4.13
2018-01-17T11:29:11.092Z,4.09
2018-01-17T11:30:18.076Z,4.08
2018-01-17T11:31:24.539Z,4.20
2018-01-17T11:32:30.884Z,4.24
2018-01-17T11:33:37.106Z,4.19
2018-01-17T11:34:43.399Z,4.10
2018-01-17T11:35:49.541Z,4.15
2018-01-17T11:36:55.499Z,4.12
2018-01-17T11:38:01.661Z,4.05
2018-01-17T11:39:13.691Z,3.97
2018-01-17T11:40:20.231Z,4.00
2018-01-17T11:41:26.514Z,4.10
2018-01-17T11:42:32.671Z,4.09
2018-01-17T11:43:38.826Z,4.02
2018-01-17T11:44:45.373Z,4.09
2018-01-17T11:45:52.020Z,4.09
2018-01-17T11:46:58.234Z,4.08
2018-01-17T11:48:04.992Z,3.98
2018-01-17T11:49:12.192Z,3.99
2018-01-17T11:50:18.183Z,4.02
2018-01-17T11:51:25.588Z,4.03
2018-01-17T11:52:31.708Z,3.98
2018-01-17T11:53:38.975Z,3.93
2018-01-17T11:54:45.199Z,3.99
2018-01-17T11:55:51.369Z,3.98
2018-01-17T11:56:59.247Z,3.96
2018-01-17T11:58:05.392Z,3.99
2018-01-17T11:59:11.396Z,4.03
2018-01-17T12:00:17.632Z,4.07
2018-01-17T12:01:24.504Z,4.08
2018-01-17T12:02:31.017Z,4.15
2018-01-17T12:03:38.547Z,4.13
2018-01-17T12:04:44.945Z,4.11
2018-01-17T12:05:51.914Z,4.11
2018-01-17T12:06:58.089Z,4.11
2018-01-17T12:08:04.415Z,4.15
2018-01-17T12:09:10.449Z,4.13
2018-01-17T12:10:16.633Z,4.04
2018-01-17T12:11:23.462Z,3.93
2018-01-17T12:12:29.731Z,3.92
2018-01-17T12:13:36.982Z,4.03
2018-01-17T12:14:43.246Z,4.10
2018-01-17T12:15:50.899Z,4.17
2018-01-17T12:16:58.676Z,4.26
2018-01-17T12:18:04.930Z,4.22
2018-01-17T12:19:11.121Z,4.29
2018-01-17T12:20:17.068Z,4.46
2018-01-17T12:21:23.372Z,4.46
2018-01-17T12:22:29.535Z,4.52
2018-01-17T12:23:36.059Z,4.52
2018-01-17T12:24:41.912Z,4.57
2018-01-17T12:25:48.562Z,4.53
2018-01-17T12:26:54.852Z,4.42
2018-01-17T12:28:01.146Z,4.37
2018-01-17T12:29:07.377Z,4.42
2018-01-17T12:30:13.559Z,4.45
2018-01-17T12:31:19.400Z,4.45
2018-01-17T12:32:25.655Z,4.51
2018-01-17T12:33:31.828Z,4.53
2018-01-17T12:34:37.999Z,4.64
2018-01-17T12:35:44.228Z,4.60
2018-01-17T12:36:50.616Z,4.59
2018-01-17T12:37:56.875Z,4.60
2018-01-17T12:39:03.938Z,4.53
2018-01-17T12:40:09.883Z,4.55
2018-01-17T12:41:16.780Z,4.57
2018-01-17T12:42:22.820Z,4.59
2018-01-17T12:43:28.933Z,4.54
2018-01-17T12:44:35.656Z,4.42
2018-01-17T12:45:42.750Z,4.46
2018-01-17T12:46:48.950Z,4.35
2018-01-17T12:47:55.395Z,4.33
2018-01-17T12:49:01.601Z,4.26
2018-01-17T12:50:08.789Z,4.28
2018-01-17T12:51:15.635Z,4.33
2018-01-17T12:52:21.827Z,4.31
2018-01-17T12:53:29.380Z,4.23
2018-01-17T12:54:35.471Z,4.24
2018-01-17T12:55:41.582Z,4.21
2018-01-17T12:56:47.711Z,4.16
2018-01-17T12:57:53.439Z,3.99
2018-01-17T12:59:00.452Z,3.94
2018-01-17T13:00:06.075Z,3.94
2018-01-17T13:01:12.246Z,4.03
2018-01-17T13:02:18.543Z,3.92
2018-01-17T13:03:25.580Z,3.96
2018-01-17T13:04:31.396Z,3.97
2018-01-17T13:05:37.229Z,3.96
2018-01-17T13:06:43.406Z,3.96
2018-01-17T13:07:49.544Z,3.89
2018-01-17T13:08:55.799Z,3.93
2018-01-17T13:10:01.997Z,3.91
2018-01-17T13:11:08.172Z,3.89
2018-01-17T13:12:14.301Z,3.84
2018-01-17T13:13:20.398Z,3.90
2018-01-17T13:14:26.608Z,3.95
2018-01-17T13:15:32.801Z,3.82
2018-01-17T13:16:38.965Z,3.73
2018-01-17T13:17:45.146Z,3.65
2018-01-17T13:18:51.286Z,3.54
2018-01-17T13:19:58.512Z,3.60
2018-01-17T13:21:04.654Z,3.58
2018-01-17T13:22:10.754Z,3.61
2018-01-17T13:23:17.018Z,3.63
2018-01-17T13:24:23.203Z,3.58
2018-01-17T13:25:29.493Z,3.57
2018-01-17T13:26:36.680Z,3.53
2018-01-17T13:27:42.766Z,3.57
2018-01-17T13:28:48.755Z,3.68
2018-01-17T13:29:54.956Z,3.63
2018-01-17T13:31:01.531Z,3.66
2018-01-17T13:32:08.090Z,3.63
2018-01-17T13:33:14.253Z,3.58
2018-01-17T13:34:20.486Z,3.55
2018-01-17T13:35:26.537Z,3.57
2018-01-17T13:36:32.789Z,3.57
2018-01-17T13:37:39.009Z,3.50
2018-01-17T13:38:46.172Z,3.57
2018-01-17T13:39:52.447Z,3.66
2018-01-17T13:40:58.945Z,3.71
2018-01-17T13:42:05.346Z,3.75
2018-01-17T13:43:11.571Z,3.80
2018-01-17T13:44:17.952Z,3.88
2018-01-17T13:45:24.200Z,3.86
2018-01-17T13:46:30.355Z,3.90
2018-01-17T13:47:36.557Z,3.99
2018-01-17T13:48:43.376Z,3.98
2018-01-17T13:49:49.702Z,3.97
2018-01-17T13:50:55.821Z,3.95
2018-01-17T13:52:02.590Z,3.89
2018-01-17T13:53:08.865Z,3.82
2018-01-17T13:54:15.054Z,3.85
2018-01-17T13:55:21.285Z,3.85
2018-01-17T13:56:27.426Z,3.91
2018-01-17T13:57:33.407Z,3.95
2018-01-17T13:58:39.244Z,4.07
2018-01-17T13:59:45.384Z,4.05
2018-01-17T14:00:51.540Z,4.05
2018-01-17T14:01:57.238Z,4.15
2018-01-17T14:03:03.565Z,4.23
2018-01-17T14:04:09.774Z,4.19
2018-01-17T14:05:17.416Z,4.19
2018-01-17T14:06:24.582Z,4.23
2018-01-17T14:07:30.746Z,4.29
2018-01-17T14:08:36.948Z,4.26
2018-01-17T14:09:43.143Z,4.33
2018-01-17T14:10:49.342Z,4.25
2018-01-17T14:11:55.501Z,4.27
2018-01-17T14:13:02.557Z,4.26
2018-01-17T14:14:08.980Z,4.18
2018-01-17T14:15:15.297Z,4.14
2018-01-17T14:16:21.405Z,4.12
2018-01-17T14:17:28.287Z,4.17
2018-01-17T14:18:34.483Z,4.10
2018-01-17T14:19:41.696Z,4.06
2018-01-17T14:20:47.926Z,3.99
2018-01-17T14:21:54.146Z,3.92
2018-01-17T14:23:00.350Z,3.96
2018-01-17T14:24:06.540Z,3.85
2018-01-17T14:25:12.888Z,3.95
2018-01-17T14:26:19.217Z,3.93
2018-01-17T14:27:26.246Z,3.84
2018-01-17T14:28:32.856Z,3.80
2018-01-17T14:29:38.855Z,3.81
2018-01-17T14:30:45.715Z,3.86
2018-01-17T14:31:52.720Z,3.86
2018-01-17T14:33:00.736Z,3.75
2018-01-17T14:34:06.981Z,3.79
2018-01-17T14:35:14.080Z,3.75
2018-01-17T14:36:20.275Z,3.75
2018-01-17T14:37:27.498Z,3.78
2018-01-17T14:38:34.227Z,3.76
2018-01-17T14:39:41.357Z,3.82
2018-01-17T14:40:48.197Z,3.70
2018-01-17T14:41:54.381Z,3.74
2018-01-17T14:43:05.899Z,3.76
2018-01-17T14:44:12.480Z,3.78
2018-01-17T14:45:21.779Z,3.66
2018-01-17T14:46:28.295Z,3.66
2018-01-17T14:47:34.492Z,3.67
2018-01-17T14:48:40.644Z,3.64